sensor_id;sensor_type;location;lat;lon;timestamp;temperature;humidity
4090;DHT22;2059;48.538;12.146;2023-02-15T00:04:43;1.90;99.90
4090;DHT22;2059;48.538;12.146;2023-02-15T00:10:07;1.60;99.90
4090;DHT22;2059;48.538;12.146;2023-02-15T00:15:11;1.90;99.90
4090;DHT22;2059;48.538;12.146;2023-02-15T00:20:37;2.00;99.90
4090;DHT22;2059;48.538;12.146;2023-02-15T00:25:40;2.20;99.90
4090;DHT22;2059;48.538;12.146;2023-02-15T00:30:42;2.30;99.90
4090;DHT22;2059;48.538;12.146;2023-02-15T00:35:44;2.10;99.90
4090;DHT22;2059;48.538;12.146;2023-02-15T00:40:53;1.70;99.90
4090;DHT22;2059;48.538;12.146;2023-02-15T00:45:55;2.00;99.90
4090;DHT22;2059;48.538;12.146;2023-02-15T00:50:58;2.20;99.90
4090;DHT22;2059;48.538;12.146;2023-02-15T00:56:01;2.00;99.90
4090;DHT22;2059;48.538;12.146;2023-02-15T01:01:05;2.00;99.90
4090;DHT22;2059;48.538;12.146;2023-02-15T01:06:08;2.00;99.90
4090;DHT22;2059;48.538;12.146;2023-02-15T01:11:14;2.10;99.90
4090;DHT22;2059;48.538;12.146;2023-02-15T01:16:16;1.70;99.90
4090;DHT22;2059;48.538;12.146;2023-02-15T01:21:21;1.70;99.90
4090;DHT22;2059;48.538;12.146;2023-02-15T01:26:24;1.60;99.90
4090;DHT22;2059;48.538;12.146;2023-02-15T01:31:26;1.70;99.90
4090;DHT22;2059;48.538;12.146;2023-02-15T01:36:28;1.80;99.90
4090;DHT22;2059;48.538;12.146;2023-02-15T01:41:33;1.90;99.90
4090;DHT22;2059;48.538;12.146;2023-02-15T01:46:37;1.60;99.90
4090;DHT22;2059;48.538;12.146;2023-02-15T01:51:42;1.50;99.90
4090;DHT22;2059;48.538;12.146;2023-02-15T01:56:47;1.60;99.90
4090;DHT22;2059;48.538;12.146;2023-02-15T02:01:51;1.60;99.90
4090;DHT22;2059;48.538;12.146;2023-02-15T02:06:54;1.70;99.90
4090;DHT22;2059;48.538;12.146;2023-02-15T02:12:00;1.40;99.90
4090;DHT22;2059;48.538;12.146;2023-02-15T02:17:10;1.20;99.90
4090;DHT22;2059;48.538;12.146;2023-02-15T02:22:49;1.20;99.90
4090;DHT22;2059;48.538;12.146;2023-02-15T02:28:04;1.30;99.90
4090;DHT22;2059;48.538;12.146;2023-02-15T02:38:42;0.80;99.90
4090;DHT22;2059;48.538;12.146;2023-02-15T02:43:51;1.40;99.90
4090;DHT22;2059;48.538;12.146;2023-02-15T02:48:56;1.60;99.90
4090;DHT22;2059;48.538;12.146;2023-02-15T02:54:00;1.20;99.90
4090;DHT22;2059;48.538;12.146;2023-02-15T02:59:09;1.50;99.90
4090;DHT22;2059;48.538;12.146;2023-02-15T03:04:16;1.60;99.90
4090;DHT22;2059;48.538;12.146;2023-02-15T03:09:23;1.50;99.90
4090;DHT22;2059;48.538;12.146;2023-02-15T03:14:35;1.40;99.90
4090;DHT22;2059;48.538;12.146;2023-02-15T03:19:39;1.00;99.90
4090;DHT22;2059;48.538;12.146;2023-02-15T03:24:45;1.10;99.90
4090;DHT22;2059;48.538;12.146;2023-02-15T03:29:53;1.10;99.90
4090;DHT22;2059;48.538;12.146;2023-02-15T03:34:58;1.10;99.90
4090;DHT22;2059;48.538;12.146;2023-02-15T03:40:03;1.10;99.90
4090;DHT22;2059;48.538;12.146;2023-02-15T03:45:25;1.10;99.90
4090;DHT22;2059;48.538;12.146;2023-02-15T03:50:31;1.20;99.90
4090;DHT22;2059;48.538;12.146;2023-02-15T03:55:57;0.90;99.90
4090;DHT22;2059;48.538;12.146;2023-02-15T04:01:02;1.10;99.90
4090;DHT22;2059;48.538;12.146;2023-02-15T04:06:24;1.00;99.90
4090;DHT22;2059;48.538;12.146;2023-02-15T04:11:26;0.90;99.90
4090;DHT22;2059;48.538;12.146;2023-02-15T04:16:28;1.20;99.90
4090;DHT22;2059;48.538;12.146;2023-02-15T04:21:31;1.00;99.90
4090;DHT22;2059;48.538;12.146;2023-02-15T04:26:51;1.00;99.90
4090;DHT22;2059;48.538;12.146;2023-02-15T04:31:55;1.40;99.90
4090;DHT22;2059;48.538;12.146;2023-02-15T04:36:59;1.20;99.90
4090;DHT22;2059;48.538;12.146;2023-02-15T04:42:00;1.00;99.90
4090;DHT22;2059;48.538;12.146;2023-02-15T04:47:02;1.30;99.90
4090;DHT22;2059;48.538;12.146;2023-02-15T04:52:06;1.90;99.90
4090;DHT22;2059;48.538;12.146;2023-02-15T04:57:08;1.60;99.90
4090;DHT22;2059;48.538;12.146;2023-02-15T05:02:09;1.30;99.90
4090;DHT22;2059;48.538;12.146;2023-02-15T05:07:13;1.50;99.90
4090;DHT22;2059;48.538;12.146;2023-02-15T05:12:18;1.40;99.90
4090;DHT22;2059;48.538;12.146;2023-02-15T05:17:20;1.40;99.90
4090;DHT22;2059;48.538;12.146;2023-02-15T05:22:23;1.50;99.90
4090;DHT22;2059;48.538;12.146;2023-02-15T05:27:25;1.60;99.90
4090;DHT22;2059;48.538;12.146;2023-02-15T05:32:44;1.40;99.90
4090;DHT22;2059;48.538;12.146;2023-02-15T05:37:47;1.20;99.90
4090;DHT22;2059;48.538;12.146;2023-02-15T05:42:49;1.50;99.90
4090;DHT22;2059;48.538;12.146;2023-02-15T05:47:51;1.20;99.90
4090;DHT22;2059;48.538;12.146;2023-02-15T05:52:54;1.40;99.90
4090;DHT22;2059;48.538;12.146;2023-02-15T05:57:56;1.20;99.90
4090;DHT22;2059;48.538;12.146;2023-02-15T06:02:58;0.90;99.90
4090;DHT22;2059;48.538;12.146;2023-02-15T06:08:01;0.90;99.90
4090;DHT22;2059;48.538;12.146;2023-02-15T06:13:02;1.10;99.90
4090;DHT22;2059;48.538;12.146;2023-02-15T06:18:04;1.30;99.90
4090;DHT22;2059;48.538;12.146;2023-02-15T06:23:07;1.30;99.90
4090;DHT22;2059;48.538;12.146;2023-02-15T06:28:09;0.90;99.90
4090;DHT22;2059;48.538;12.146;2023-02-15T06:33:11;1.00;99.90
4090;DHT22;2059;48.538;12.146;2023-02-15T06:38:14;1.10;99.90
4090;DHT22;2059;48.538;12.146;2023-02-15T06:43:16;1.50;99.90
4090;DHT22;2059;48.538;12.146;2023-02-15T06:48:17;1.50;99.90
4090;DHT22;2059;48.538;12.146;2023-02-15T06:53:21;1.30;99.90
4090;DHT22;2059;48.538;12.146;2023-02-15T06:58:22;1.10;99.90
4090;DHT22;2059;48.538;12.146;2023-02-15T07:03:24;1.40;99.90
4090;DHT22;2059;48.538;12.146;2023-02-15T07:08:28;1.20;99.90
4090;DHT22;2059;48.538;12.146;2023-02-15T07:13:29;0.90;99.90
4090;DHT22;2059;48.538;12.146;2023-02-15T07:18:31;1.50;99.90
4090;DHT22;2059;48.538;12.146;2023-02-15T07:23:34;1.30;99.90
4090;DHT22;2059;48.538;12.146;2023-02-15T07:28:36;0.70;99.90
4090;DHT22;2059;48.538;12.146;2023-02-15T07:33:38;1.10;99.90
4090;DHT22;2059;48.538;12.146;2023-02-15T07:38:41;1.30;99.90
4090;DHT22;2059;48.538;12.146;2023-02-15T07:43:44;1.00;99.90
4090;DHT22;2059;48.538;12.146;2023-02-15T07:48:46;1.00;99.90
4090;DHT22;2059;48.538;12.146;2023-02-15T07:53:50;1.60;99.90
4090;DHT22;2059;48.538;12.146;2023-02-15T07:58:52;1.30;99.90
4090;DHT22;2059;48.538;12.146;2023-02-15T08:03:56;1.60;99.90
4090;DHT22;2059;48.538;12.146;2023-02-15T08:09:00;1.60;99.90
4090;DHT22;2059;48.538;12.146;2023-02-15T08:14:04;1.90;99.90
4090;DHT22;2059;48.538;12.146;2023-02-15T08:19:08;1.80;99.90
4090;DHT22;2059;48.538;12.146;2023-02-15T08:24:13;2.20;99.90
4090;DHT22;2059;48.538;12.146;2023-02-15T08:29:16;1.60;99.90
4090;DHT22;2059;48.538;12.146;2023-02-15T08:34:19;1.70;99.90
4090;DHT22;2059;48.538;12.146;2023-02-15T08:39:23;1.90;99.90
4090;DHT22;2059;48.538;12.146;2023-02-15T08:44:25;2.30;99.90
4090;DHT22;2059;48.538;12.146;2023-02-15T08:49:26;2.50;99.90
4090;DHT22;2059;48.538;12.146;2023-02-15T08:54:30;1.80;99.90
4090;DHT22;2059;48.538;12.146;2023-02-15T08:59:31;1.70;99.90
4090;DHT22;2059;48.538;12.146;2023-02-15T09:04:33;2.20;99.90
4090;DHT22;2059;48.538;12.146;2023-02-15T09:09:36;2.80;99.90
4090;DHT22;2059;48.538;12.146;2023-02-15T09:14:38;2.60;99.90
4090;DHT22;2059;48.538;12.146;2023-02-15T09:19:40;3.10;99.90
4090;DHT22;2059;48.538;12.146;2023-02-15T09:24:43;2.90;99.90
4090;DHT22;2059;48.538;12.146;2023-02-15T09:29:45;3.00;99.90
4090;DHT22;2059;48.538;12.146;2023-02-15T09:34:46;3.20;99.90
4090;DHT22;2059;48.538;12.146;2023-02-15T09:39:49;2.10;99.90
4090;DHT22;2059;48.538;12.146;2023-02-15T09:45:07;2.90;99.90
4090;DHT22;2059;48.538;12.146;2023-02-15T09:50:17;2.90;99.90
4090;DHT22;2059;48.538;12.146;2023-02-15T09:55:40;3.40;99.90
4090;DHT22;2059;48.538;12.146;2023-02-15T10:00:49;3.90;99.90
4090;DHT22;2059;48.538;12.146;2023-02-15T10:06:07;3.80;99.90
4090;DHT22;2059;48.538;12.146;2023-02-15T10:11:21;3.70;99.90
4090;DHT22;2059;48.538;12.146;2023-02-15T10:16:50;3.50;99.90
4090;DHT22;2059;48.538;12.146;2023-02-15T10:22:01;3.80;99.90
4090;DHT22;2059;48.538;12.146;2023-02-15T10:27:12;3.90;99.90
4090;DHT22;2059;48.538;12.146;2023-02-15T10:32:20;3.80;99.90
4090;DHT22;2059;48.538;12.146;2023-02-15T10:37:44;3.90;99.90
4090;DHT22;2059;48.538;12.146;2023-02-15T10:43:03;3.90;99.90
4090;DHT22;2059;48.538;12.146;2023-02-15T10:48:27;4.20;99.90
4090;DHT22;2059;48.538;12.146;2023-02-15T10:53:46;3.90;99.90
4090;DHT22;2059;48.538;12.146;2023-02-15T10:59:07;4.60;99.90
4090;DHT22;2059;48.538;12.146;2023-02-15T11:04:32;5.00;99.60
4090;DHT22;2059;48.538;12.146;2023-02-15T11:09:44;4.20;99.90
4090;DHT22;2059;48.538;12.146;2023-02-15T11:14:52;3.60;99.90
4090;DHT22;2059;48.538;12.146;2023-02-15T11:20:02;3.90;99.90
4090;DHT22;2059;48.538;12.146;2023-02-15T11:25:17;3.60;99.90
4090;DHT22;2059;48.538;12.146;2023-02-15T11:30:25;4.40;99.90
4090;DHT22;2059;48.538;12.146;2023-02-15T11:35:30;5.30;99.40
4090;DHT22;2059;48.538;12.146;2023-02-15T11:40:36;4.80;99.90
4090;DHT22;2059;48.538;12.146;2023-02-15T11:45:45;5.30;99.90
4090;DHT22;2059;48.538;12.146;2023-02-15T11:50:47;4.70;99.70
4090;DHT22;2059;48.538;12.146;2023-02-15T11:55:50;5.10;99.50
4090;DHT22;2059;48.538;12.146;2023-02-15T12:00:58;5.20;99.90
4090;DHT22;2059;48.538;12.146;2023-02-15T12:06:04;5.30;99.40
4090;DHT22;2059;48.538;12.146;2023-02-15T12:11:09;5.10;99.90
4090;DHT22;2059;48.538;12.146;2023-02-15T12:16:14;5.40;99.60
4090;DHT22;2059;48.538;12.146;2023-02-15T12:21:25;5.40;98.90
4090;DHT22;2059;48.538;12.146;2023-02-15T12:26:29;5.00;99.80
4090;DHT22;2059;48.538;12.146;2023-02-15T12:31:36;4.20;99.90
4090;DHT22;2059;48.538;12.146;2023-02-15T12:36:42;5.10;99.90
4090;DHT22;2059;48.538;12.146;2023-02-15T12:41:58;5.70;99.70
4090;DHT22;2059;48.538;12.146;2023-02-15T12:47:04;6.30;98.70
4090;DHT22;2059;48.538;12.146;2023-02-15T12:52:23;5.70;98.70
4090;DHT22;2059;48.538;12.146;2023-02-15T12:57:27;5.10;99.90
4090;DHT22;2059;48.538;12.146;2023-02-15T13:02:36;4.80;99.90
4090;DHT22;2059;48.538;12.146;2023-02-15T13:07:45;5.30;99.60
4090;DHT22;2059;48.538;12.146;2023-02-15T13:12:48;4.50;99.90
4090;DHT22;2059;48.538;12.146;2023-02-15T13:17:57;4.70;99.90
4090;DHT22;2059;48.538;12.146;2023-02-15T13:23:02;4.80;99.90
4090;DHT22;2059;48.538;12.146;2023-02-15T13:28:06;4.50;99.90
4090;DHT22;2059;48.538;12.146;2023-02-15T13:33:17;5.30;99.90
4090;DHT22;2059;48.538;12.146;2023-02-15T13:38:42;5.60;99.90
4090;DHT22;2059;48.538;12.146;2023-02-15T13:43:52;5.80;99.90
4090;DHT22;2059;48.538;12.146;2023-02-15T13:49:05;5.90;99.50
4090;DHT22;2059;48.538;12.146;2023-02-15T13:54:36;5.80;99.90
4090;DHT22;2059;48.538;12.146;2023-02-15T13:59:52;5.40;99.90
4090;DHT22;2059;48.538;12.146;2023-02-15T14:05:18;5.80;99.90
4090;DHT22;2059;48.538;12.146;2023-02-15T14:10:38;5.70;99.90
4090;DHT22;2059;48.538;12.146;2023-02-15T14:15:47;6.00;99.70
4090;DHT22;2059;48.538;12.146;2023-02-15T14:21:00;5.90;99.60
4090;DHT22;2059;48.538;12.146;2023-02-15T14:26:08;5.80;99.90
4090;DHT22;2059;48.538;12.146;2023-02-15T14:31:12;5.60;99.90
4090;DHT22;2059;48.538;12.146;2023-02-15T14:36:18;4.90;99.90
4090;DHT22;2059;48.538;12.146;2023-02-15T14:41:24;4.90;99.90
4090;DHT22;2059;48.538;12.146;2023-02-15T14:46:33;4.80;99.90
4090;DHT22;2059;48.538;12.146;2023-02-15T14:52:07;4.90;99.90
4090;DHT22;2059;48.538;12.146;2023-02-15T14:57:25;4.60;99.90
4090;DHT22;2059;48.538;12.146;2023-02-15T15:02:30;5.00;99.90
4090;DHT22;2059;48.538;12.146;2023-02-15T15:07:44;4.90;99.90
4090;DHT22;2059;48.538;12.146;2023-02-15T15:12:47;4.60;99.90
4090;DHT22;2059;48.538;12.146;2023-02-15T15:17:55;4.80;99.90
4090;DHT22;2059;48.538;12.146;2023-02-15T15:28:57;4.90;99.90
4090;DHT22;2059;48.538;12.146;2023-02-15T15:34:22;4.90;99.90
4090;DHT22;2059;48.538;12.146;2023-02-15T15:39:58;5.10;99.90
4090;DHT22;2059;48.538;12.146;2023-02-15T15:50:39;4.70;99.90
4090;DHT22;2059;48.538;12.146;2023-02-15T15:55:43;4.80;99.90
4090;DHT22;2059;48.538;12.146;2023-02-15T16:00:50;4.60;99.90
4090;DHT22;2059;48.538;12.146;2023-02-15T16:05:53;4.60;99.90
4090;DHT22;2059;48.538;12.146;2023-02-15T16:10:56;4.40;99.90
4090;DHT22;2059;48.538;12.146;2023-02-15T16:16:00;4.50;99.90
4090;DHT22;2059;48.538;12.146;2023-02-15T16:21:02;4.30;99.90
4090;DHT22;2059;48.538;12.146;2023-02-15T16:26:09;4.50;99.90
4090;DHT22;2059;48.538;12.146;2023-02-15T16:31:16;4.30;99.90
4090;DHT22;2059;48.538;12.146;2023-02-15T16:36:21;4.20;99.90
4090;DHT22;2059;48.538;12.146;2023-02-15T16:41:25;3.80;99.90
4090;DHT22;2059;48.538;12.146;2023-02-15T16:46:32;3.60;99.90
4090;DHT22;2059;48.538;12.146;2023-02-15T16:51:35;4.20;99.90
4090;DHT22;2059;48.538;12.146;2023-02-15T16:56:37;4.10;99.90
4090;DHT22;2059;48.538;12.146;2023-02-15T17:01:44;3.50;99.90
4090;DHT22;2059;48.538;12.146;2023-02-15T17:06:57;3.60;99.90
4090;DHT22;2059;48.538;12.146;2023-02-15T17:11:59;3.90;99.90
4090;DHT22;2059;48.538;12.146;2023-02-15T17:17:10;3.70;99.90
4090;DHT22;2059;48.538;12.146;2023-02-15T17:22:18;4.00;99.90
4090;DHT22;2059;48.538;12.146;2023-02-15T17:27:23;4.20;99.90
4090;DHT22;2059;48.538;12.146;2023-02-15T17:32:29;3.70;99.90
4090;DHT22;2059;48.538;12.146;2023-02-15T17:37:41;3.70;99.90
4090;DHT22;2059;48.538;12.146;2023-02-15T17:42:43;3.50;99.90
4090;DHT22;2059;48.538;12.146;2023-02-15T17:47:48;3.60;99.90
4090;DHT22;2059;48.538;12.146;2023-02-15T17:52:50;3.90;99.90
4090;DHT22;2059;48.538;12.146;2023-02-15T17:57:53;3.40;99.90
4090;DHT22;2059;48.538;12.146;2023-02-15T18:02:56;3.50;99.90
4090;DHT22;2059;48.538;12.146;2023-02-15T18:08:17;3.30;99.90
4090;DHT22;2059;48.538;12.146;2023-02-15T18:13:37;3.50;99.90
4090;DHT22;2059;48.538;12.146;2023-02-15T18:18:40;3.70;99.90
4090;DHT22;2059;48.538;12.146;2023-02-15T18:23:43;3.40;99.90
4090;DHT22;2059;48.538;12.146;2023-02-15T18:28:44;2.90;99.90
4090;DHT22;2059;48.538;12.146;2023-02-15T18:33:51;2.80;99.90
4090;DHT22;2059;48.538;12.146;2023-02-15T18:38:54;3.40;99.90
4090;DHT22;2059;48.538;12.146;2023-02-15T18:43:55;3.20;99.90
4090;DHT22;2059;48.538;12.146;2023-02-15T18:48:59;3.00;99.90
4090;DHT22;2059;48.538;12.146;2023-02-15T18:54:01;3.20;99.90
4090;DHT22;2059;48.538;12.146;2023-02-15T18:59:03;3.20;99.90
4090;DHT22;2059;48.538;12.146;2023-02-15T19:04:06;3.10;99.90
4090;DHT22;2059;48.538;12.146;2023-02-15T19:09:11;3.10;99.90
4090;DHT22;2059;48.538;12.146;2023-02-15T19:14:23;3.40;99.90
4090;DHT22;2059;48.538;12.146;2023-02-15T19:19:27;3.30;99.90
4090;DHT22;2059;48.538;12.146;2023-02-15T19:24:32;3.30;99.90
4090;DHT22;2059;48.538;12.146;2023-02-15T19:29:36;3.10;99.90
4090;DHT22;2059;48.538;12.146;2023-02-15T19:34:40;3.20;99.90
4090;DHT22;2059;48.538;12.146;2023-02-15T19:39:41;3.30;99.90
4090;DHT22;2059;48.538;12.146;2023-02-15T19:44:43;2.90;99.90
4090;DHT22;2059;48.538;12.146;2023-02-15T19:49:46;2.90;99.90
4090;DHT22;2059;48.538;12.146;2023-02-15T19:54:48;3.00;99.90
4090;DHT22;2059;48.538;12.146;2023-02-15T19:59:50;2.70;99.90
4090;DHT22;2059;48.538;12.146;2023-02-15T20:04:53;3.00;99.90
4090;DHT22;2059;48.538;12.146;2023-02-15T20:09:55;3.20;99.90
4090;DHT22;2059;48.538;12.146;2023-02-15T20:14:57;2.80;99.90
4090;DHT22;2059;48.538;12.146;2023-02-15T20:20:01;2.60;99.90
4090;DHT22;2059;48.538;12.146;2023-02-15T20:25:03;2.70;99.90
4090;DHT22;2059;48.538;12.146;2023-02-15T20:30:13;2.80;99.90
4090;DHT22;2059;48.538;12.146;2023-02-15T20:35:17;2.30;99.90
4090;DHT22;2059;48.538;12.146;2023-02-15T20:40:22;2.20;99.90
4090;DHT22;2059;48.538;12.146;2023-02-15T20:45:26;1.90;99.90
4090;DHT22;2059;48.538;12.146;2023-02-15T20:50:31;1.90;99.90
4090;DHT22;2059;48.538;12.146;2023-02-15T20:55:33;2.00;99.90
4090;DHT22;2059;48.538;12.146;2023-02-15T21:00:35;2.60;99.90
4090;DHT22;2059;48.538;12.146;2023-02-15T21:05:38;2.60;99.90
4090;DHT22;2059;48.538;12.146;2023-02-15T21:10:41;2.70;99.90
4090;DHT22;2059;48.538;12.146;2023-02-15T21:15:45;2.50;99.90
4090;DHT22;2059;48.538;12.146;2023-02-15T21:20:49;2.10;99.90
4090;DHT22;2059;48.538;12.146;2023-02-15T21:25:53;2.10;99.90
4090;DHT22;2059;48.538;12.146;2023-02-15T21:30:56;2.20;99.90
4090;DHT22;2059;48.538;12.146;2023-02-15T21:35:59;2.30;99.90
4090;DHT22;2059;48.538;12.146;2023-02-15T21:41:01;2.50;99.90
4090;DHT22;2059;48.538;12.146;2023-02-15T21:46:23;1.80;99.90
4090;DHT22;2059;48.538;12.146;2023-02-15T21:51:44;2.10;99.90
4090;DHT22;2059;48.538;12.146;2023-02-15T21:57:04;2.30;99.90
4090;DHT22;2059;48.538;12.146;2023-02-15T22:02:25;2.40;99.90
4090;DHT22;2059;48.538;12.146;2023-02-15T22:07:29;2.20;99.90
4090;DHT22;2059;48.538;12.146;2023-02-15T22:17:41;2.60;99.90
4090;DHT22;2059;48.538;12.146;2023-02-15T22:22:44;2.20;99.90
4090;DHT22;2059;48.538;12.146;2023-02-15T22:27:47;2.50;99.90
4090;DHT22;2059;48.538;12.146;2023-02-15T22:32:51;2.20;99.90
4090;DHT22;2059;48.538;12.146;2023-02-15T22:37:56;2.20;99.90
4090;DHT22;2059;48.538;12.146;2023-02-15T22:43:00;1.70;99.90
4090;DHT22;2059;48.538;12.146;2023-02-15T22:48:03;2.00;99.90
4090;DHT22;2059;48.538;12.146;2023-02-15T22:53:08;1.80;99.90
4090;DHT22;2059;48.538;12.146;2023-02-15T22:58:15;2.00;99.90
4090;DHT22;2059;48.538;12.146;2023-02-15T23:03:19;1.50;99.90
4090;DHT22;2059;48.538;12.146;2023-02-15T23:08:23;1.70;99.90
4090;DHT22;2059;48.538;12.146;2023-02-15T23:13:28;1.10;99.90
4090;DHT22;2059;48.538;12.146;2023-02-15T23:18:32;0.80;99.90
4090;DHT22;2059;48.538;12.146;2023-02-15T23:23:38;0.40;99.90
4090;DHT22;2059;48.538;12.146;2023-02-15T23:28:40;0.70;99.90
4090;DHT22;2059;48.538;12.146;2023-02-15T23:33:42;0.70;99.90
4090;DHT22;2059;48.538;12.146;2023-02-15T23:38:45;1.20;99.90
4090;DHT22;2059;48.538;12.146;2023-02-15T23:43:49;1.20;99.90
4090;DHT22;2059;48.538;12.146;2023-02-15T23:48:53;0.80;99.90
4090;DHT22;2059;48.538;12.146;2023-02-15T23:53:57;1.10;99.90
4090;DHT22;2059;48.538;12.146;2023-02-15T23:58:59;1.40;99.90
